History for KNYNEWYO1007

Gold Coast Greenwich Village, New York City, NY — Current Conditions
Daily Summary for November 12, 2018
  Current: High: Low: Average:
Temperature: 48.6°F 49.1°F 37.9°F 43.5°F
Dew Point: 37.2°F 37.0°F 25.3°F 30.3°F
Humidity: 70% 75% 50% 63%
Wind Speed: 1.3mph 3.8mph - 1.7mph
Wind Gust: 3.1mph 8.1mph - -
Wind: WSW - - WSW
Pressure: 30.11in 30.24in 30.11in -
Precipitation: 0.00in      
Statistics for the rest of the month
    High: Low: Average:
Temperature:   71.6°F 33.8°F 52.4°F
Dew Point:   63.7°F 18.0°F 41.4°F
Humidity:   97.0% 39.0% 71.5%
Wind Speed:   11.9mph from the West - 3.0mph
Wind Gust:   27.3mph from the West - -
Wind:   - - WSW
Pressure:   30.34in 29.35in -
Precipitation:   0.00in    
KNYNEWYO1007 Weather Graph
Tabular Data for November 12, 2018
Time Temp. Windchill Dew Point Pressure Wind Gust Humidity Rainfall
00:00 41.2°F - 25.7°F 30.19in 3.8mph 58% 0.00in
00:10 41.0°F - 25.5°F 30.18in 3.8mph 58% 0.00in
00:21 40.8°F - 25.3°F 30.18in 4.3mph 58% 0.00in
00:31 40.6°F - 25.5°F 30.18in 4.3mph 59% 0.00in
00:51 40.5°F - 25.3°F 30.18in 2.5mph 59% 0.00in
01:01 40.5°F - 25.3°F 30.17in 2.5mph 59% 0.00in
01:21 40.5°F - 26.1°F 30.19in 3.1mph 61% 0.00in
01:32 40.5°F - 26.4°F 30.19in 3.1mph 62% 0.00in
01:41 40.5°F - 26.8°F 30.18in 4.3mph 63% 0.00in
01:51 40.5°F - 27.5°F 30.19in 3.8mph 65% 0.00in
02:01 40.5°F 38.8°F 27.5°F 30.19in 6.9mph 65% 0.00in
02:12 40.3°F - 27.3°F 30.19in 3.1mph 65% 0.00in
02:22 40.1°F - 27.7°F 30.19in 3.8mph 66% 0.00in
02:31 39.9°F - 27.5°F 30.20in 3.8mph 66% 0.00in
02:42 39.7°F - 27.7°F 30.20in 3.8mph 67% 0.00in
02:52 39.6°F - 27.5°F 30.19in 3.8mph 67% 0.00in
03:12 39.2°F - 27.1°F 30.19in 3.1mph 67% 0.00in
03:22 39.4°F - 27.7°F 30.19in 3.8mph 68% 0.00in
03:32 39.4°F - 27.7°F 30.19in 4.3mph 68% 0.00in
04:03 38.7°F - 27.0°F 30.19in 2.5mph 68% 0.00in
04:22 38.7°F - 26.2°F 30.20in 2.5mph 66% 0.00in
04:33 38.7°F - 26.2°F 30.20in 2.5mph 66% 0.00in
04:43 38.8°F - 26.8°F 30.20in 1.8mph 67% 0.00in
05:03 38.8°F - 27.1°F 30.20in 2.5mph 68% 0.00in
05:13 39.2°F - 27.9°F 30.20in 2.5mph 69% 0.00in
05:23 39.4°F - 28.4°F 30.20in 3.8mph 70% 0.00in
05:33 39.4°F - 28.4°F 30.20in 3.1mph 70% 0.00in
05:44 39.2°F - 28.2°F 30.19in 2.5mph 70% 0.00in
06:34 39.2°F - 28.9°F 30.20in 3.8mph 72% 0.00in
07:04 38.5°F - 28.2°F 30.20in 3.8mph 72% 0.00in
07:14 38.3°F - 28.4°F 30.21in 3.1mph 73% 0.00in
07:24 38.3°F - 28.4°F 30.21in 4.3mph 73% 0.00in
07:35 38.3°F - 28.4°F 30.22in 4.3mph 73% 0.00in
07:44 38.1°F - 28.2°F 30.22in 4.9mph 73% 0.00in
07:54 37.9°F - 28.0°F 30.23in 4.3mph 73% 0.00in
08:05 37.9°F - 28.4°F 30.24in 4.3mph 74% 0.00in
08:15 37.9°F - 28.4°F 30.23in 3.8mph 74% 0.00in
08:35 38.5°F - 29.3°F 30.24in 3.8mph 75% 0.00in
08:45 38.7°F - 29.5°F 30.24in 3.8mph 75% 0.00in
08:55 39.0°F - 29.5°F 30.24in 3.8mph 74% 0.00in
09:05 39.7°F - 30.2°F 30.24in 3.8mph 74% 0.00in
09:26 40.3°F - 29.7°F 30.23in 4.3mph 71% 0.00in
09:45 41.2°F - 29.3°F 30.23in 4.3mph 68% 0.00in
10:16 42.4°F 40.3°F 28.8°F 30.23in 6.3mph 63% 0.00in
10:26 43.0°F - 29.3°F 30.23in 3.1mph 63% 0.00in
10:36 43.3°F - 29.1°F 30.24in 4.3mph 62% 0.00in
10:46 43.7°F - 29.1°F 30.24in 6.3mph 61% 0.00in
10:56 43.9°F - 28.6°F 30.23in 4.3mph 59% 0.00in
11:16 44.2°F - 27.7°F 30.22in 5.6mph 56% 0.00in
11:26 44.6°F 43.5°F 28.0°F 30.22in 7.4mph 56% 0.00in
11:47 45.5°F 44.5°F 28.6°F 30.21in 6.9mph 55% 0.00in
11:57 45.9°F 44.9°F 29.3°F 30.20in 6.9mph 56% 0.00in
12:06 46.0°F 44.4°F 29.5°F 30.20in 7.4mph 56% 0.00in
12:17 46.4°F - 29.8°F 30.20in 6.9mph 56% 0.00in
12:27 46.9°F - 29.8°F 30.19in 4.3mph 55% 0.00in
12:37 47.5°F - 29.7°F 30.19in 3.8mph 53% 0.00in
12:47 47.7°F - 29.5°F 30.17in 4.9mph 52% 0.00in
12:58 47.8°F - 29.3°F 30.17in 7.4mph 51% 0.00in
13:07 48.0°F - 29.3°F 30.17in 8.1mph 51% 0.00in
13:17 48.4°F - 29.7°F 30.17in 5.6mph 51% 0.00in
13:28 48.7°F - 29.7°F 30.16in 5.6mph 50% 0.00in
13:48 48.7°F - 29.7°F 30.15in 3.8mph 50% 0.00in
13:57 48.9°F - 30.2°F 30.16in 3.1mph 51% 0.00in
14:08 48.9°F - 30.2°F 30.16in 2.5mph 51% 0.00in
14:18 48.9°F - 30.2°F 30.16in 3.8mph 51% 0.00in
14:28 49.1°F - 30.4°F 30.16in 2.5mph 51% 0.00in
14:38 49.1°F - 30.4°F 30.15in 3.8mph 51% 0.00in
14:48 48.9°F - 30.2°F 30.15in 4.3mph 51% 0.00in
14:58 48.9°F - 30.2°F 30.15in 4.3mph 51% 0.00in
15:08 48.7°F - 30.0°F 30.15in 4.3mph 51% 0.00in
15:19 48.7°F - 30.4°F 30.16in 3.8mph 52% 0.00in
15:29 48.7°F - 30.4°F 30.16in 3.8mph 52% 0.00in
15:38 48.6°F - 30.7°F 30.15in 4.3mph 53% 0.00in
15:49 48.4°F - 30.6°F 30.14in 3.1mph 53% 0.00in
15:59 48.4°F - 30.9°F 30.16in 3.1mph 54% 0.00in
16:09 48.0°F - 30.9°F 30.16in 3.1mph 55% 0.00in
16:19 48.0°F - 31.3°F 30.16in 4.3mph 56% 0.00in
16:30 47.8°F - 31.5°F 30.16in 3.1mph 57% 0.00in
16:39 47.8°F - 32.4°F 30.16in 3.8mph 59% 0.00in
16:49 47.7°F - 32.5°F 30.16in 3.1mph 60% 0.00in
16:59 47.7°F - 32.9°F 30.17in 2.5mph 61% 0.00in
17:10 47.7°F - 32.9°F 30.16in 3.1mph 61% 0.00in
17:20 47.7°F - 33.3°F 30.16in 2.5mph 62% 0.00in
17:30 47.7°F - 33.6°F 30.16in 2.5mph 63% 0.00in
17:40 47.7°F - 34.0°F 30.16in 2.5mph 64% 0.00in
17:50 47.7°F - 34.0°F 30.16in 2.5mph 64% 0.00in
18:00 47.7°F - 34.3°F 30.16in 4.3mph 65% 0.00in
18:10 47.8°F - 34.5°F 30.16in 2.5mph 65% 0.00in
18:21 47.7°F - 34.9°F 30.16in 2.5mph 66% 0.00in
18:30 47.8°F - 35.4°F 30.15in 3.1mph 67% 0.00in
18:40 47.8°F - 35.4°F 30.15in 2.5mph 67% 0.00in
18:51 47.8°F - 35.8°F 30.14in 3.1mph 68% 0.00in
19:01 48.0°F - 36.0°F 30.14in 3.8mph 68% 0.00in
19:11 48.0°F - 36.0°F 30.14in 3.1mph 68% 0.00in
19:21 48.0°F - 36.3°F 30.13in 2.5mph 69% 0.00in
19:31 48.0°F - 36.0°F 30.14in 2.5mph 68% 0.00in
19:41 47.8°F - 35.8°F 30.13in 3.1mph 68% 0.00in
19:51 48.0°F - 36.3°F 30.14in 3.8mph 69% 0.00in
20:01 48.0°F - 36.3°F 30.14in 3.1mph 69% 0.00in
20:12 48.0°F - 36.3°F 30.14in 3.1mph 69% 0.00in
20:22 48.0°F - 36.3°F 30.14in 1.3mph 69% 0.00in
20:31 48.0°F - 36.3°F 30.14in 3.1mph 69% 0.00in
20:42 48.0°F - 36.7°F 30.14in 3.1mph 70% 0.00in
20:52 48.2°F - 36.9°F 30.13in 2.5mph 70% 0.00in
21:02 48.4°F - 37.0°F 30.12in 2.5mph 70% 0.00in
21:12 48.6°F - 36.9°F 30.12in 3.8mph 69% 0.00in
Comma Delimited File
Powered by Weather Underground, Inc.